Time;durP1;ratioP1;P1;durP2;ratioP2;P2;SDS_P1;SDS_P2;PMS_P1;PMS_P2;Temp;Humidity;BMP_temperature;BMP_pressure;BME280_temperature;BME280_humidity;BME280_pressure;Samples;Min_cycle;Max_cycle;Signal;HPM_P1;HPM_P2
2023/05/17 00:02:14;;;;;;;54.17;14.82;;;;;;;;;;6118907;23;20029;-81
2023/05/17 00:04:41;;;;;;;64.72;17.88;;;;;;;;;;6119843;23;20025;-81
2023/05/17 00:07:09;;;;;;;66.32;16.73;;;;;;;;;;6118100;23;20034;-79
2023/05/17 00:09:42;;;;;;;76.15;19.27;;;;;;;;;;6119869;23;20018;-79
2023/05/17 00:12:09;;;;;;;77.20;19.40;;;;;;;;;;6117803;23;20029;-79
2023/05/17 00:14:36;;;;;;;62.08;18.05;;;;;;;;;;6119563;23;20123;-79
2023/05/17 00:17:10;;;;;;;70.50;18.30;;;;;;;;;;6121016;23;20463;-79
2023/05/17 00:19:37;;;;;;;75.28;18.33;;;;;;;;;;6121031;23;20335;-79
2023/05/17 00:22:11;;;;;;;65.28;17.70;;;;;;;;;;6121528;23;20033;-79
2023/05/17 00:24:38;;;;;;;75.00;19.20;;;;;;;;;;6121292;23;20026;-79
2023/05/17 00:27:06;;;;;;;49.35;16.13;;;;;;;;;;6122792;23;20457;-79
2023/05/17 00:29:39;;;;;;;37.10;11.40;;;;;;;;;;6121984;23;20064;-79
2023/05/17 00:32:06;;;;;;;27.30;9.45;;;;;;;;;;6121176;23;20026;-79
2023/05/17 00:34:40;;;;;;;44.22;11.52;;;;;;;;;;6121296;23;20021;-79
2023/05/17 00:37:07;;;;;;;29.00;11.38;;;;;;;;;;6121219;23;20061;-79
2023/05/17 00:39:35;;;;;;;30.92;9.75;;;;;;;;;;6120729;23;20343;-79
2023/05/17 00:42:08;;;;;;;27.63;10.13;;;;;;;;;;6120634;23;20447;-79
2023/05/17 00:44:36;;;;;;;26.80;8.80;;;;;;;;;;6095392;23;20096;-79
2023/05/17 00:47:09;;;;;;;13.68;6.07;;;;;;;;;;6121019;23;20108;-79
2023/05/17 00:49:36;;;;;;;11.45;5.60;;;;;;;;;;6120968;23;20415;-79
2023/05/17 00:52:04;;;;;;;12.38;4.82;;;;;;;;;;6121092;23;20412;-79
2023/05/17 00:54:39;;;;;;;10.95;3.75;;;;;;;;;;6120791;23;20029;-79
2023/05/17 00:57:06;;;;;;;6.38;3.13;;;;;;;;;;6096611;23;20018;-79
2023/05/17 00:59:40;;;;;;;3.67;2.70;;;;;;;;;;6120869;23;20096;-79
2023/05/17 01:02:14;;;;;;;9.73;2.72;;;;;;;;;;6121470;23;20022;-79
2023/05/17 01:04:48;;;;;;;4.47;2.42;;;;;;;;;;6121151;23;20034;-79
2023/05/17 01:07:29;;;;;;;6.70;2.40;;;;;;;;;;6118306;23;20387;-79
2023/05/17 01:09:56;;;;;;;3.78;1.85;;;;;;;;;;6120584;23;20395;-79
2023/05/17 01:12:36;;;;;;;5.75;2.05;;;;;;;;;;6120663;23;20025;-79
2023/05/17 01:15:09;;;;;;;5.60;2.00;;;;;;;;;;6119182;23;20349;-79
2023/05/17 01:18:09;;;;;;;5.97;2.05;;;;;;;;;;6121669;23;20029;-79
2023/05/17 01:20:38;;;;;;;3.05;2.10;;;;;;;;;;6117372;23;20022;-79
2023/05/17 01:23:12;;;;;;;7.78;2.20;;;;;;;;;;6119208;23;20022;-79
2023/05/17 01:25:48;;;;;;;3.63;2.10;;;;;;;;;;6120320;23;20278;-79
2023/05/17 01:28:22;;;;;;;6.88;2.22;;;;;;;;;;6120082;23;20029;-79
2023/05/17 01:30:49;;;;;;;;;;;;;;;;;;6120979;23;20074;-79
2023/05/17 01:33:23;;;;;;;5.22;1.98;;;;;;;;;;6121439;23;19924;-79
2023/05/17 01:35:57;;;;;;;5.30;1.60;;;;;;;;;;6097614;23;20034;-79
2023/05/17 01:38:31;;;;;;;5.45;1.90;;;;;;;;;;6120431;23;20022;-78
2023/05/17 01:41:17;;;;;;;3.35;1.55;;;;;;;;;;6121334;23;20022;-79
2023/05/17 01:44:10;;;;;;;6.47;1.48;;;;;;;;;;6120410;23;20057;-79
2023/05/17 01:46:46;;;;;;;4.18;1.38;;;;;;;;;;6120803;23;20026;-78
2023/05/17 01:49:21;;;;;;;6.68;1.30;;;;;;;;;;6119467;23;20025;-79
2023/05/17 01:52:05;;;;;;;4.15;1.38;;;;;;;;;;6121522;23;20030;-79
2023/05/17 01:54:36;;;;;;;3.75;1.33;;;;;;;;;;6118498;23;20097;-79
2023/05/17 01:57:11;;;;;;;7.28;1.00;;;;;;;;;;6118203;23;20096;-79
2023/05/17 01:59:38;;;;;;;2.17;1.00;;;;;;;;;;6118305;23;20030;-79
2023/05/17 02:02:12;;;;;;;14.90;1.33;;;;;;;;;;6120926;23;20025;-79
2023/05/17 02:04:40;;;;;;;3.70;1.27;;;;;;;;;;6120134;23;20037;-78
2023/05/17 02:07:26;;;;;;;9.18;1.33;;;;;;;;;;6116230;23;20028;-78
2023/05/17 02:10:00;;;;;;;5.78;1.42;;;;;;;;;;6096058;23;20394;-79
2023/05/17 02:12:34;;;;;;;7.38;1.13;;;;;;;;;;6121030;23;20053;-79
2023/05/17 02:15:01;;;;;;;6.82;1.40;;;;;;;;;;6119596;23;20033;-79
2023/05/17 02:17:28;;;;;;;9.68;1.42;;;;;;;;;;6119938;23;20470;-79
2023/05/17 02:20:03;;;;;;;3.17;1.00;;;;;;;;;;6119487;23;20026;-79
2023/05/17 02:22:30;;;;;;;9.57;2.17;;;;;;;;;;6120350;23;20026;-79
2023/05/17 02:24:57;;;;;;;5.38;1.23;;;;;;;;;;6118844;23;20030;-79
2023/05/17 02:27:31;;;;;;;3.78;1.58;;;;;;;;;;6120581;23;20022;-79
2023/05/17 02:29:58;;;;;;;5.93;1.58;;;;;;;;;;6120200;23;20340;-79
2023/05/17 02:32:32;;;;;;;12.18;1.50;;;;;;;;;;6120348;23;20026;-79
2023/05/17 02:34:59;;;;;;;;;;;;;;;;;;6120191;23;20382;-79
2023/05/17 02:37:27;;;;;;;8.05;1.70;;;;;;;;;;6118904;23;20204;-79
2023/05/17 02:40:00;;;;;;;8.90;2.83;;;;;;;;;;6119604;23;20025;-79
2023/05/17 02:42:27;;;;;;;3.10;1.38;;;;;;;;;;6121466;23;20085;-79
2023/05/17 02:45:01;;;;;;;4.97;1.65;;;;;;;;;;6119814;23;20475;-79
2023/05/17 02:47:28;;;;;;;5.32;1.90;;;;;;;;;;6120106;23;20026;-79
2023/05/17 02:49:56;;;;;;;3.38;1.73;;;;;;;;;;6120104;23;20442;-79
2023/05/17 02:52:29;;;;;;;6.22;2.10;;;;;;;;;;6119187;23;20029;-79
2023/05/17 02:54:56;;;;;;;2.55;1.95;;;;;;;;;;6120252;23;20077;-79
2023/05/17 02:57:30;;;;;;;6.32;2.10;;;;;;;;;;6120688;23;20081;-79
2023/05/17 02:59:57;;;;;;;4.30;2.20;;;;;;;;;;6119012;23;20038;-79
2023/05/17 03:02:24;;;;;;;3.15;2.00;;;;;;;;;;6120324;23;20076;-79
2023/05/17 03:04:58;;;;;;;3.80;1.95;;;;;;;;;;6095022;23;20537;-79
2023/05/17 03:07:32;;;;;;;3.17;2.00;;;;;;;;;;6118554;23;20021;-79
2023/05/17 03:10:06;;;;;;;3.00;1.92;;;;;;;;;;6122189;23;20026;-79
2023/05/17 03:12:33;;;;;;;3.28;2.00;;;;;;;;;;6122930;23;20030;-79
2023/05/17 03:15:00;;;;;;;2.42;1.90;;;;;;;;;;6122070;23;20028;-79
2023/05/17 03:17:34;;;;;;;3.65;1.90;;;;;;;;;;6121121;23;20029;-79
2023/05/17 03:20:01;;;;;;;5.43;1.85;;;;;;;;;;6121387;23;20018;-79
2023/05/17 03:22:35;;;;;;;8.57;1.60;;;;;;;;;;6121469;23;20034;-79
2023/05/17 03:25:04;;;;;;;;;;;;;;;;;;6122062;23;20022;-79
2023/05/17 03:27:31;;;;;;;3.45;1.30;;;;;;;;;;6121765;23;19921;-79
2023/05/17 03:30:05;;;;;;;2.88;1.33;;;;;;;;;;6120926;23;20092;-79
2023/05/17 03:32:32;;;;;;;1.65;1.08;;;;;;;;;;6121783;23;20034;-79
2023/05/17 03:35:07;;;;;;;1.58;1.35;;;;;;;;;;6122165;23;20018;-79
2023/05/17 03:37:34;;;;;;;;;;;;;;;;;;6096096;23;20030;-78
2023/05/17 03:40:08;;;;;;;3.67;1.10;;;;;;;;;;6121460;23;19925;-79
2023/05/17 03:42:42;;;;;;;6.63;1.20;;;;;;;;;;6122491;23;20300;-79
2023/05/17 03:45:16;;;;;;;0.82;0.60;;;;;;;;;;6120471;23;20057;-79
2023/05/17 03:47:43;;;;;;;2.40;0.80;;;;;;;;;;6121664;23;20025;-79
2023/05/17 03:50:17;;;;;;;2.50;0.82;;;;;;;;;;6122248;23;20466;-79
2023/05/17 03:52:45;;;;;;;3.92;1.13;;;;;;;;;;6121695;23;20057;-79
2023/05/17 03:55:12;;;;;;;3.42;0.88;;;;;;;;;;6120271;23;20022;-80
2023/05/17 03:57:46;;;;;;;0.60;0.60;;;;;;;;;;6120655;23;20026;-79
2023/05/17 04:00:19;;;;;;;1.63;0.60;;;;;;;;;;6120094;23;20463;-79
2023/05/17 04:02:53;;;;;;;0.93;0.55;;;;;;;;;;6120982;23;20081;-79
2023/05/17 04:05:23;;;;;;;1.13;0.60;;;;;;;;;;6117019;23;20028;-79
2023/05/17 04:07:51;;;;;;;0.30;0.30;;;;;;;;;;6115879;23;20030;-80
2023/05/17 04:10:24;;;;;;;1.17;0.40;;;;;;;;;;6094292;23;20371;-81
2023/05/17 04:12:51;;;;;;;0.47;0.45;;;;;;;;;;6116816;23;20470;-82
2023/05/17 04:15:25;;;;;;;2.67;0.40;;;;;;;;;;6118383;23;20021;-82
2023/05/17 04:17:52;;;;;;;0.43;0.40;;;;;;;;;;6120087;23;20054;-82
2023/05/17 04:20:20;;;;;;;0.43;0.43;;;;;;;;;;6118833;23;20788;-81
2023/05/17 04:22:54;;;;;;;0.82;0.43;;;;;;;;;;6094187;23;20029;-82
2023/05/17 04:25:24;;;;;;;0.70;0.40;;;;;;;;;;6120282;23;20030;-81
2023/05/17 04:27:58;;;;;;;1.45;0.50;;;;;;;;;;6120248;23;20029;-82
2023/05/17 04:30:25;;;;;;;0.93;0.50;;;;;;;;;;6118418;23;20045;-82
2023/05/17 04:32:52;;;;;;;2.25;0.50;;;;;;;;;;6093802;23;20030;-83
2023/05/17 04:35:26;;;;;;;4.40;0.30;;;;;;;;;;6119157;23;20026;-82
2023/05/17 04:37:54;;;;;;;;;;;;;;;;;;6120434;23;20061;-81
2023/05/17 04:40:28;;;;;;;2.25;1.30;;;;;;;;;;6119498;23;19925;-83
2023/05/17 04:42:55;;;;;;;1.00;0.63;;;;;;;;;;6119614;23;20383;-82
2023/05/17 04:45:23;;;;;;;2.47;0.90;;;;;;;;;;6120592;23;20251;-82
2023/05/17 04:47:58;;;;;;;1.65;0.52;;;;;;;;;;6118208;23;20085;-82
2023/05/17 04:50:25;;;;;;;0.75;0.40;;;;;;;;;;6116411;23;20022;-81
2023/05/17 04:52:59;;;;;;;2.83;0.82;;;;;;;;;;6116388;23;20092;-82
2023/05/17 04:55:26;;;;;;;2.78;0.47;;;;;;;;;;6117152;23;20025;-82
2023/05/17 04:57:54;;;;;;;2.45;0.40;;;;;;;;;;6115721;23;20025;-82
2023/05/17 05:00:28;;;;;;;0.30;0.30;;;;;;;;;;6116409;23;20034;-82
2023/05/17 05:02:55;;;;;;;0.55;0.50;;;;;;;;;;6116668;23;20073;-82
2023/05/17 05:05:30;;;;;;;1.73;0.50;;;;;;;;;;6118324;23;20025;-81
2023/05/17 05:08:04;;;;;;;1.90;0.60;;;;;;;;;;6115127;23;20022;-82
2023/05/17 05:10:38;;;;;;;0.57;0.57;;;;;;;;;;6120588;23;20120;-82
2023/05/17 05:13:05;;;;;;;1.05;0.50;;;;;;;;;;6121198;23;20459;-82
2023/05/17 05:15:32;;;;;;;0.40;0.40;;;;;;;;;;6121415;23;20529;-82
2023/05/17 05:18:06;;;;;;;1.38;0.30;;;;;;;;;;6120398;23;20458;-82
2023/05/17 05:20:33;;;;;;;0.35;0.35;;;;;;;;;;6121175;23;20021;-81
2023/05/17 05:23:07;;;;;;;0.30;0.30;;;;;;;;;;6118128;23;20462;-81
2023/05/17 05:25:42;;;;;;;0.50;0.50;;;;;;;;;;6121458;23;20411;-81
2023/05/17 05:28:10;;;;;;;0.55;0.55;;;;;;;;;;6121798;23;20403;-81
2023/05/17 05:30:38;;;;;;;0.50;0.50;;;;;;;;;;6120095;23;20028;-81
2023/05/17 05:33:12;;;;;;;0.82;0.60;;;;;;;;;;6120629;23;20391;-81
2023/05/17 05:35:40;;;;;;;0.63;0.60;;;;;;;;;;6121206;23;20475;-81
2023/05/17 05:38:07;;;;;;;2.67;0.52;;;;;;;;;;6121992;23;20034;-81
2023/05/17 05:40:41;;;;;;;5.25;0.80;;;;;;;;;;6121130;23;20030;-81
2023/05/17 05:43:08;;;;;;;2.67;0.80;;;;;;;;;;6120498;23;20033;-81
2023/05/17 05:45:35;;;;;;;2.08;0.82;;;;;;;;;;6120850;23;20022;-81
2023/05/17 05:48:09;;;;;;;1.02;0.60;;;;;;;;;;6121000;23;20081;-81
2023/05/17 05:50:36;;;;;;;2.75;0.57;;;;;;;;;;6121547;23;20081;-81
2023/05/17 05:53:10;;;;;;;3.88;0.85;;;;;;;;;;6120663;23;20029;-81
2023/05/17 05:55:45;;;;;;;4.72;0.90;;;;;;;;;;6120806;23;20048;-81
2023/05/17 05:58:19;;;;;;;1.92;0.50;;;;;;;;;;6120097;23;20073;-81
2023/05/17 06:00:49;;;;;;;7.35;0.57;;;;;;;;;;6120288;23;20029;-81
2023/05/17 06:03:16;;;;;;;;;;;;;;;;;;6120515;23;20419;-81
2023/05/17 06:05:50;;;;;;;1.20;0.60;;;;;;;;;;6120667;23;19928;-81
2023/05/17 06:08:24;;;;;;;2.42;0.90;;;;;;;;;;6090171;23;20022;-81
2023/05/17 06:10:57;;;;;;;0.75;0.45;;;;;;;;;;6090578;23;20077;-82
2023/05/17 06:13:24;;;;;;;4.57;0.60;;;;;;;;;;6091590;23;20106;-82
2023/05/17 06:15:58;;;;;;;3.33;0.70;;;;;;;;;;6091489;23;20467;-82
2023/05/17 06:18:25;;;;;;;3.67;0.88;;;;;;;;;;6090930;23;20106;-82
2023/05/17 06:20:59;;;;;;;1.20;0.68;;;;;;;;;;6090953;23;20071;-83
2023/05/17 06:23:26;;;;;;;2.08;0.65;;;;;;;;;;6091532;23;20082;-82
2023/05/17 06:25:54;;;;;;;1.05;0.63;;;;;;;;;;6090441;23;20491;-82
2023/05/17 06:28:28;;;;;;;3.90;0.80;;;;;;;;;;6091283;23;20367;-82
2023/05/17 06:30:55;;;;;;;3.47;0.93;;;;;;;;;;6091756;23;20081;-82
2023/05/17 06:33:29;;;;;;;1.30;0.90;;;;;;;;;;6090754;23;20090;-82
2023/05/17 06:35:56;;;;;;;;;;;;;;;;;;6090716;23;20720;-83
2023/05/17 06:38:30;;;;;;;3.70;0.90;;;;;;;;;;6090891;23;19917;-82
2023/05/17 06:40:57;;;;;;;4.43;1.20;;;;;;;;;;6090708;23;20023;-82
2023/05/17 06:43:31;;;;;;;5.65;1.15;;;;;;;;;;6091898;23;20502;-82
2023/05/17 06:46:01;;;;;;;6.45;1.42;;;;;;;;;;6090898;23;20054;-82
2023/05/17 06:48:34;;;;;;;1.17;0.88;;;;;;;;;;6090550;23;20019;-82
2023/05/17 06:51:02;;;;;;;3.53;0.90;;;;;;;;;;6090678;23;20046;-82
2023/05/17 06:53:29;;;;;;;11.52;1.02;;;;;;;;;;6090318;23;20609;-81
2023/05/17 06:56:03;;;;;;;6.22;1.35;;;;;;;;;;6090708;23;20022;-81
2023/05/17 06:58:31;;;;;;;2.58;0.98;;;;;;;;;;6090901;23;20026;-82
2023/05/17 07:01:05;;;;;;;1.02;0.88;;;;;;;;;;6091149;23;20045;-82
2023/05/17 07:03:32;;;;;;;2.25;1.00;;;;;;;;;;6090385;23;20050;-81
2023/05/17 07:06:00;;;;;;;5.72;0.70;;;;;;;;;;6088892;23;20534;-82
2023/05/17 07:08:41;;;;;;;3.88;1.17;;;;;;;;;;6117616;23;20454;-81
2023/05/17 07:11:08;;;;;;;2.97;1.40;;;;;;;;;;6118945;23;20378;-81
2023/05/17 07:13:42;;;;;;;2.88;1.10;;;;;;;;;;6119710;23;20030;-81
2023/05/17 07:16:10;;;;;;;4.05;0.90;;;;;;;;;;6120759;23;20493;-81
2023/05/17 07:18:37;;;;;;;2.58;1.23;;;;;;;;;;6119575;23;20030;-81
2023/05/17 07:21:11;;;;;;;2.70;1.10;;;;;;;;;;6118976;23;20080;-81
2023/05/17 07:23:38;;;;;;;4.38;0.98;;;;;;;;;;6120392;23;20025;-81
2023/05/17 07:26:12;;;;;;;12.02;1.70;;;;;;;;;;6120666;23;20026;-81
2023/05/17 07:28:39;;;;;;;2.60;0.90;;;;;;;;;;6121102;23;20034;-81
2023/05/17 07:31:06;;;;;;;3.42;1.10;;;;;;;;;;6119486;23;20022;-81
2023/05/17 07:33:40;;;;;;;2.15;0.80;;;;;;;;;;6119338;23;20518;-81
2023/05/17 07:36:07;;;;;;;1.20;0.70;;;;;;;;;;6119732;23;20081;-81
2023/05/17 07:38:41;;;;;;;2.78;1.23;;;;;;;;;;6120627;23;20022;-81
2023/05/17 07:41:09;;;;;;;1.50;1.00;;;;;;;;;;6118877;23;20030;-80
2023/05/17 07:43:36;;;;;;;;;;;;;;;;;;6095005;23;20092;-81
2023/05/17 07:46:10;;;;;;;1.10;0.90;;;;;;;;;;6120840;23;19964;-81
2023/05/17 07:48:37;;;;;;;5.75;1.05;;;;;;;;;;6118991;23;20394;-81
2023/05/17 07:51:04;;;;;;;2.72;1.02;;;;;;;;;;6119755;23;20098;-81
2023/05/17 07:53:38;;;;;;;5.57;1.30;;;;;;;;;;6120276;23;20026;-81
2023/05/17 07:56:05;;;;;;;6.22;1.00;;;;;;;;;;6118781;23;20026;-81
2023/05/17 07:58:39;;;;;;;2.75;0.90;;;;;;;;;;6119724;23;20555;-81
2023/05/17 08:01:08;;;;;;;1.80;0.85;;;;;;;;;;6119963;23;20022;-81
2023/05/17 08:03:36;;;;;;;6.32;1.52;;;;;;;;;;6119194;23;20081;-81
2023/05/17 08:06:09;;;;;;;2.25;0.98;;;;;;;;;;6119322;23;20093;-81
2023/05/17 08:08:43;;;;;;;4.53;1.10;;;;;;;;;;6117719;23;20022;-81
2023/05/17 08:11:17;;;;;;;1.92;0.77;;;;;;;;;;6119514;23;20018;-81
2023/05/17 08:13:45;;;;;;;5.45;1.65;;;;;;;;;;6119381;23;20264;-81
2023/05/17 08:16:12;;;;;;;3.63;0.95;;;;;;;;;;6119919;23;20033;-79
2023/05/17 08:18:46;;;;;;;0.93;0.68;;;;;;;;;;6118803;23;20022;-78
2023/05/17 08:21:14;;;;;;;0.50;0.50;;;;;;;;;;6119571;23;20026;-78
2023/05/17 08:23:48;;;;;;;1.33;0.57;;;;;;;;;;6095969;23;20402;-79
2023/05/17 08:26:16;;;;;;;2.25;0.90;;;;;;;;;;6119516;23;20025;-79
2023/05/17 08:28:50;;;;;;;4.22;1.13;;;;;;;;;;6119035;23;20535;-78
2023/05/17 08:31:17;;;;;;;3.72;0.65;;;;;;;;;;6119873;23;20026;-78
2023/05/17 08:33:45;;;;;;;1.15;0.70;;;;;;;;;;6119452;23;20026;-79
2023/05/17 08:36:18;;;;;;;5.72;1.33;;;;;;;;;;6119434;23;20029;-79
2023/05/17 08:38:45;;;;;;;0.75;0.40;;;;;;;;;;6122043;23;20085;-79
2023/05/17 08:41:12;;;;;;;0.65;0.57;;;;;;;;;;6121146;23;20026;-79
2023/05/17 08:43:49;;;;;;;2.15;0.95;;;;;;;;;;6121843;23;20109;-78
2023/05/17 08:46:22;;;;;;;1.73;0.80;;;;;;;;;;6121492;23;20121;-79
2023/05/17 08:48:58;;;;;;;0.80;0.60;;;;;;;;;;6121912;23;20089;-79
2023/05/17 08:51:27;;;;;;;0.57;0.57;;;;;;;;;;6096194;23;20064;-79
2023/05/17 08:54:04;;;;;;;2.15;0.73;;;;;;;;;;6121717;23;20026;-79
2023/05/17 08:56:34;;;;;;;5.13;0.90;;;;;;;;;;6120922;23;20077;-79
2023/05/17 08:59:11;;;;;;;0.82;0.60;;;;;;;;;;6119044;23;20072;-79
2023/05/17 09:01:50;;;;;;;3.13;0.73;;;;;;;;;;6120526;23;20102;-79
2023/05/17 09:04:24;;;;;;;2.92;0.82;;;;;;;;;;6121636;23;20069;-79
2023/05/17 09:07:05;;;;;;;2.45;0.80;;;;;;;;;;6118642;23;20110;-79
2023/05/17 09:09:54;;;;;;;1.77;0.90;;;;;;;;;;6120567;23;20418;-79
2023/05/17 09:12:28;;;;;;;1.63;0.90;;;;;;;;;;6121857;23;20296;-79
2023/05/17 09:14:55;;;;;;;;;;;;;;;;;;6096879;23;20033;-79
2023/05/17 09:17:29;;;;;;;1.88;0.60;;;;;;;;;;6120554;23;19917;-79
2023/05/17 09:19:57;;;;;;;3.67;0.88;;;;;;;;;;6120761;23;20105;-79
2023/05/17 09:22:25;;;;;;;2.58;0.98;;;;;;;;;;6120459;23;20458;-79
2023/05/17 09:25:01;;;;;;;3.88;0.60;;;;;;;;;;6120973;23;20026;-79
2023/05/17 09:27:35;;;;;;;0.38;0.38;;;;;;;;;;6121127;23;20462;-79
2023/05/17 09:30:02;;;;;;;1.75;0.65;;;;;;;;;;6120940;23;20022;-79
2023/05/17 09:32:30;;;;;;;1.20;0.63;;;;;;;;;;6118829;23;20053;-79
2023/05/17 09:35:03;;;;;;;3.80;0.60;;;;;;;;;;6120711;23;20101;-79
2023/05/17 09:37:30;;;;;;;1.20;0.50;;;;;;;;;;6120859;23;20030;-80
2023/05/17 09:40:00;;;;;;;2.38;0.85;;;;;;;;;;6120474;23;20466;-79
2023/05/17 09:42:38;;;;;;;1.95;0.82;;;;;;;;;;6120662;23;20022;-79
2023/05/17 09:45:13;;;;;;;1.10;0.80;;;;;;;;;;6120508;23;20387;-79
2023/05/17 09:47:40;;;;;;;1.20;0.60;;;;;;;;;;6094732;23;20030;-79
2023/05/17 09:50:16;;;;;;;1.13;0.50;;;;;;;;;;6120433;23;20026;-79
2023/05/17 09:52:52;;;;;;;2.17;0.57;;;;;;;;;;6120322;23;20028;-79
2023/05/17 09:55:26;;;;;;;0.65;0.43;;;;;;;;;;6121268;23;20025;-78
2023/05/17 09:58:03;;;;;;;2.85;0.70;;;;;;;;;;6120546;23;20033;-79
2023/05/17 10:00:31;;;;;;;7.78;1.15;;;;;;;;;;6120166;23;20045;-79
2023/05/17 10:02:58;;;;;;;2.13;0.63;;;;;;;;;;6120478;23;20410;-79
2023/05/17 10:05:32;;;;;;;4.40;0.80;;;;;;;;;;6119764;23;20022;-79
2023/05/17 10:08:06;;;;;;;;;;;;;;;;;;6118535;23;20033;-77
2023/05/17 10:10:49;;;;;;;2.78;0.80;;;;;;;;;;6120637;23;19987;-79
2023/05/17 10:13:18;;;;;;;1.85;0.90;;;;;;;;;;6121501;23;20332;-79
2023/05/17 10:15:53;;;;;;;1.75;0.70;;;;;;;;;;6119085;23;20034;-79
2023/05/17 10:18:20;;;;;;;3.17;0.70;;;;;;;;;;6120789;23;20080;-79
2023/05/17 10:20:55;;;;;;;2.42;0.77;;;;;;;;;;6119471;23;20022;-79
2023/05/17 10:23:23;;;;;;;5.13;1.02;;;;;;;;;;6120011;23;20077;-79
2023/05/17 10:25:57;;;;;;;2.22;0.70;;;;;;;;;;6096056;23;20026;-79
2023/05/17 10:28:25;;;;;;;1.67;0.80;;;;;;;;;;6120982;23;20085;-79
2023/05/17 10:30:53;;;;;;;2.15;0.60;;;;;;;;;;6094301;23;20784;-79
2023/05/17 10:33:27;;;;;;;1.85;0.55;;;;;;;;;;6120381;23;20076;-79
2023/05/17 10:36:02;;;;;;;2.13;0.57;;;;;;;;;;6118981;23;20022;-79
2023/05/17 10:38:29;;;;;;;0.65;0.50;;;;;;;;;;6094272;23;20022;-81
2023/05/17 10:41:11;;;;;;;1.65;0.50;;;;;;;;;;6120314;23;20357;-79
2023/05/17 10:43:40;;;;;;;2.28;0.73;;;;;;;;;;6121024;23;20022;-79
2023/05/17 10:46:20;;;;;;;1.02;0.55;;;;;;;;;;6120181;23;20026;-79
2023/05/17 10:48:48;;;;;;;2.72;0.47;;;;;;;;;;6120629;23;20030;-79
2023/05/17 10:51:23;;;;;;;1.02;0.50;;;;;;;;;;6120182;23;20030;-79
2023/05/17 10:54:04;;;;;;;3.75;0.60;;;;;;;;;;6118693;23;20355;-79
2023/05/17 10:56:40;;;;;;;1.77;0.52;;;;;;;;;;6119670;23;20032;-80
2023/05/17 10:59:25;;;;;;;1.58;0.60;;;;;;;;;;6120571;23;20351;-79
2023/05/17 11:01:53;;;;;;;1.42;0.47;;;;;;;;;;6120265;23;20037;-79
2023/05/17 11:04:44;;;;;;;4.85;1.33;;;;;;;;;;6121041;23;20017;-79
2023/05/17 11:07:18;;;;;;;4.30;0.70;;;;;;;;;;6117722;23;20029;-79
2023/05/17 11:10:02;;;;;;;8.20;0.70;;;;;;;;;;6120036;23;20530;-79
2023/05/17 11:12:30;;;;;;;1.40;0.40;;;;;;;;;;6121668;23;20025;-80
2023/05/17 11:15:07;;;;;;;2.42;0.40;;;;;;;;;;6119408;23;20022;-79
2023/05/17 11:17:49;;;;;;;1.20;0.40;;;;;;;;;;6119999;23;20081;-79
2023/05/17 11:20:25;;;;;;;0.43;0.40;;;;;;;;;;6120288;23;20026;-79
2023/05/17 11:22:58;;;;;;;2.58;0.47;;;;;;;;;;6119782;23;20022;-79
2023/05/17 11:25:35;;;;;;;4.75;0.47;;;;;;;;;;6120529;23;20034;-80
2023/05/17 11:28:18;;;;;;;4.80;0.68;;;;;;;;;;6093864;23;20026;-79
2023/05/17 11:30:59;;;;;;;1.85;0.45;;;;;;;;;;6120675;23;20026;-80
2023/05/17 11:33:39;;;;;;;1.90;0.82;;;;;;;;;;6120215;23;20123;-80
2023/05/17 11:36:18;;;;;;;3.13;0.65;;;;;;;;;;6118474;23;20030;-80
2023/05/17 11:39:11;;;;;;;2.15;0.35;;;;;;;;;;6119113;23;20060;-80
2023/05/17 11:41:42;;;;;;;5.18;0.82;;;;;;;;;;6094395;23;20030;-80
2023/05/17 11:44:24;;;;;;;2.20;0.80;;;;;;;;;;6094371;23;20034;-81
2023/05/17 11:46:59;;;;;;;2.95;0.55;;;;;;;;;;6120255;23;20032;-80
2023/05/17 11:49:36;;;;;;;3.70;0.47;;;;;;;;;;6120736;23;20022;-80
2023/05/17 11:52:06;;;;;;;0.60;0.47;;;;;;;;;;6118650;23;20030;-80
2023/05/17 11:54:41;;;;;;;2.22;0.80;;;;;;;;;;6120016;23;20030;-80
2023/05/17 11:57:10;;;;;;;5.78;0.70;;;;;;;;;;6119398;23;20050;-80
2023/05/17 11:59:43;;;;;;;3.15;0.55;;;;;;;;;;6119135;23;20030;-80
2023/05/17 12:02:29;;;;;;;0.85;0.57;;;;;;;;;;6119437;23;20032;-81
2023/05/17 12:05:09;;;;;;;5.72;0.60;;;;;;;;;;6121017;23;20021;-80
2023/05/17 12:07:43;;;;;;;2.92;0.50;;;;;;;;;;6117067;23;20018;-80
2023/05/17 12:10:17;;;;;;;2.85;0.70;;;;;;;;;;6120054;23;20471;-80
2023/05/17 12:12:44;;;;;;;;;;;;;;;;;;6120971;23;20022;-80
2023/05/17 12:15:19;;;;;;;2.67;0.32;;;;;;;;;;6120559;23;19956;-83
2023/05/17 12:18:00;;;;;;;3.05;0.30;;;;;;;;;;6121416;23;20025;-82
2023/05/17 12:20:28;;;;;;;4.03;0.50;;;;;;;;;;6120157;23;20026;-82
2023/05/17 12:23:02;;;;;;;2.20;0.88;;;;;;;;;;6121146;23;20022;-82
2023/05/17 12:25:29;;;;;;;1.88;0.50;;;;;;;;;;6120869;23;20030;-82
2023/05/17 12:28:13;;;;;;;6.70;0.88;;;;;;;;;;6120990;23;20084;-81
2023/05/17 12:30:41;;;;;;;5.05;0.80;;;;;;;;;;6121429;23;20030;-82
2023/05/17 12:33:14;;;;;;;3.38;0.65;;;;;;;;;;6120374;23;20030;-82
2023/05/17 12:35:42;;;;;;;2.05;0.52;;;;;;;;;;6120794;23;20029;-82
2023/05/17 12:38:16;;;;;;;2.50;0.55;;;;;;;;;;6096354;23;20081;-82
2023/05/17 12:40:44;;;;;;;;;;;;;;;;;;6096399;23;20053;-82
2023/05/17 12:43:11;;;;;;;2.15;0.22;;;;;;;;;;6121275;23;19972;-82
2023/05/17 12:45:46;;;;;;;1.40;0.60;;;;;;;;;;6120926;23;20026;-82
2023/05/17 12:48:25;;;;;;;1.85;0.52;;;;;;;;;;6122064;23;20377;-82
2023/05/17 12:50:54;;;;;;;9.60;0.82;;;;;;;;;;6121548;23;20025;-83
2023/05/17 12:53:35;;;;;;;1.17;0.57;;;;;;;;;;6095464;23;20104;-82
2023/05/17 12:56:02;;;;;;;4.47;0.63;;;;;;;;;;6096148;23;20521;-82
2023/05/17 12:58:36;;;;;;;2.80;0.85;;;;;;;;;;6120463;23;20022;-83
2023/05/17 13:01:06;;;;;;;1.85;0.50;;;;;;;;;;6121752;23;20026;-82
2023/05/17 13:03:40;;;;;;;3.55;1.00;;;;;;;;;;6121401;23;20026;-82
2023/05/17 13:06:14;;;;;;;3.72;0.57;;;;;;;;;;6120144;23;20338;-83
2023/05/17 13:09:01;;;;;;;2.17;0.47;;;;;;;;;;6119360;23;20038;-82
2023/05/17 13:11:39;;;;;;;1.67;0.70;;;;;;;;;;6121125;23;20084;-82
2023/05/17 13:14:07;;;;;;;2.95;0.57;;;;;;;;;;6120328;23;20026;-81
2023/05/17 13:16:39;;;;;;;3.00;0.70;;;;;;;;;;6093569;23;20378;-82
2023/05/17 13:19:12;;;;;;;1.20;0.50;;;;;;;;;;6119923;23;20022;-82
2023/05/17 13:21:46;;;;;;;1.98;0.60;;;;;;;;;;6118829;23;20022;-82
2023/05/17 13:24:20;;;;;;;1.10;0.50;;;;;;;;;;6119487;23;20025;-82
2023/05/17 13:26:54;;;;;;;4.53;0.77;;;;;;;;;;6120092;23;20030;-82
2023/05/17 13:29:22;;;;;;;1.55;0.55;;;;;;;;;;6121442;23;20407;-81
2023/05/17 13:32:06;;;;;;;3.13;0.65;;;;;;;;;;6121030;23;20022;-82
2023/05/17 13:34:34;;;;;;;3.33;0.88;;;;;;;;;;6118372;23;20482;-82
2023/05/17 13:37:07;;;;;;;10.05;0.85;;;;;;;;;;6119537;23;20108;-82
2023/05/17 13:39:38;;;;;;;4.82;0.65;;;;;;;;;;6118276;23;20414;-81
2023/05/17 13:42:05;;;;;;;1.48;0.63;;;;;;;;;;6118945;23;20474;-81
2023/05/17 13:44:48;;;;;;;6.07;0.73;;;;;;;;;;6119761;23;20080;-82
2023/05/17 13:47:15;;;;;;;4.65;0.52;;;;;;;;;;6121245;23;20026;-81
2023/05/17 13:49:50;;;;;;;4.00;0.60;;;;;;;;;;6120573;23;20029;-82
2023/05/17 13:52:17;;;;;;;3.22;1.05;;;;;;;;;;6094077;23;20030;-82
2023/05/17 13:54:51;;;;;;;1.38;0.68;;;;;;;;;;6119951;23;20080;-82
2023/05/17 13:57:18;;;;;;;1.95;0.80;;;;;;;;;;6119678;23;20399;-82
2023/05/17 13:59:52;;;;;;;5.43;1.05;;;;;;;;;;6120241;23;20475;-82
2023/05/17 14:02:19;;;;;;;2.90;0.80;;;;;;;;;;6120357;23;20072;-82
2023/05/17 14:04:54;;;;;;;3.00;0.75;;;;;;;;;;6120267;23;20022;-82
2023/05/17 14:07:22;;;;;;;2.33;0.73;;;;;;;;;;6117314;23;20030;-82
2023/05/17 14:10:03;;;;;;;5.00;0.93;;;;;;;;;;6120837;23;20033;-82
2023/05/17 14:12:30;;;;;;;3.80;0.60;;;;;;;;;;6119505;23;20022;-82
2023/05/17 14:15:04;;;;;;;1.65;0.47;;;;;;;;;;6118665;23;20022;-81
2023/05/17 14:17:32;;;;;;;;;;;;;;;;;;6121314;23;20034;-82
2023/05/17 14:20:05;;;;;;;5.82;1.00;;;;;;;;;;6120214;23;19928;-81
2023/05/17 14:22:33;;;;;;;1.83;0.45;;;;;;;;;;6119488;23;20033;-82
2023/05/17 14:25:07;;;;;;;2.30;0.70;;;;;;;;;;6119728;23;20387;-82
2023/05/17 14:27:35;;;;;;;;;;;;;;;;;;6120135;23;20026;-82
2023/05/17 14:30:03;;;;;;;6.07;0.93;;;;;;;;;;6120142;23;20400;-82
2023/05/17 14:32:39;;;;;;;3.92;0.93;;;;;;;;;;6119199;23;20485;-81
2023/05/17 14:35:07;;;;;;;2.58;0.77;;;;;;;;;;6120105;23;20105;-82
2023/05/17 14:37:41;;;;;;;4.88;0.95;;;;;;;;;;6118991;23;20026;-82
2023/05/17 14:40:09;;;;;;;3.88;0.80;;;;;;;;;;6121110;23;20077;-82
2023/05/17 14:42:42;;;;;;;1.88;0.80;;;;;;;;;;6119512;23;20031;-82
2023/05/17 14:45:16;;;;;;;1.92;0.73;;;;;;;;;;6119739;23;20085;-82
2023/05/17 14:47:44;;;;;;;3.80;0.73;;;;;;;;;;6118954;23;20421;-82
2023/05/17 14:50:11;;;;;;;1.67;0.55;;;;;;;;;;6120288;23;20100;-82
2023/05/17 14:52:46;;;;;;;3.92;0.57;;;;;;;;;;6119568;23;20744;-82
2023/05/17 14:55:15;;;;;;;2.90;0.80;;;;;;;;;;6118613;23;20030;-82
2023/05/17 14:57:51;;;;;;;8.85;0.80;;;;;;;;;;6118508;23;20026;-83
2023/05/17 15:00:19;;;;;;;3.67;0.80;;;;;;;;;;6119893;23;20443;-82
2023/05/17 15:02:48;;;;;;;2.40;0.90;;;;;;;;;;6118854;23;20530;-83
2023/05/17 15:05:21;;;;;;;2.92;0.88;;;;;;;;;;6119876;23;20403;-82
2023/05/17 15:07:55;;;;;;;1.25;0.52;;;;;;;;;;6116890;23;20455;-82
2023/05/17 15:10:30;;;;;;;5.70;0.85;;;;;;;;;;6119293;23;20026;-82
2023/05/17 15:12:57;;;;;;;2.58;0.70;;;;;;;;;;6119518;23;20025;-83
2023/05/17 15:15:24;;;;;;;1.95;0.50;;;;;;;;;;6118829;23;20375;-83